createdAt,value
2023-07-25T00:00:18.821Z,5.9
2023-07-25T00:01:23.655Z,5.8
2023-07-25T00:02:30.460Z,6.1
2023-07-25T00:03:35.213Z,6.4
2023-07-25T00:04:39.981Z,6.6
2023-07-25T00:05:44.883Z,6.1
2023-07-25T00:06:49.645Z,5.9
2023-07-25T00:07:58.466Z,6.9
2023-07-25T00:09:03.239Z,6.5
2023-07-25T00:10:09.074Z,6.4
2023-07-25T00:11:13.860Z,6.1
2023-07-25T00:12:18.566Z,6.5
2023-07-25T00:13:25.559Z,6.3
2023-07-25T00:14:31.417Z,6.5
2023-07-25T00:15:36.349Z,6.5
2023-07-25T00:16:41.231Z,6.8
2023-07-25T00:17:46.961Z,7.4
2023-07-25T00:18:52.711Z,8
2023-07-25T00:19:59.933Z,7.8
2023-07-25T00:21:05.631Z,8.3
2023-07-25T00:22:10.378Z,7.8
2023-07-25T00:23:15.181Z,7.5
2023-07-25T00:24:20.875Z,7.8
2023-07-25T00:25:25.694Z,7.3
2023-07-25T00:26:30.459Z,7.7
2023-07-25T00:27:35.249Z,7.5
2023-07-25T00:28:39.997Z,7.7
2023-07-25T00:29:49.954Z,7.5
2023-07-25T00:30:57.358Z,7.3
2023-07-25T00:32:07.353Z,7.7
2023-07-25T00:33:12.217Z,7.1
2023-07-25T00:34:17.019Z,7.5
2023-07-25T00:35:21.804Z,7
2023-07-25T00:36:26.557Z,7.1
2023-07-25T00:37:31.332Z,6.9
2023-07-25T00:38:36.119Z,7
2023-07-25T00:39:42.006Z,6.9
2023-07-25T00:40:46.770Z,6.6
2023-07-25T00:41:51.537Z,7.2
2023-07-25T00:42:56.357Z,6.6
2023-07-25T00:44:01.387Z,7
2023-07-25T00:45:06.115Z,7.3
2023-07-25T00:46:11.666Z,7
2023-07-25T00:47:16.430Z,7.2
2023-07-25T00:48:21.182Z,6.6
2023-07-25T00:49:26.234Z,6.7
2023-07-25T00:50:32.046Z,6.8
2023-07-25T00:51:36.818Z,6.9
2023-07-25T00:52:43.052Z,6.8
2023-07-25T00:53:53.024Z,6.3
2023-07-25T00:54:58.885Z,6.7
2023-07-25T00:56:03.633Z,6.8
2023-07-25T00:57:08.409Z,6.8
2023-07-25T00:58:13.106Z,6.8
2023-07-25T00:59:17.869Z,7
2023-07-25T01:00:23.657Z,6.3
2023-07-25T01:01:28.472Z,6.4
2023-07-25T01:02:34.318Z,6.8
2023-07-25T01:03:39.168Z,6.9
2023-07-25T01:04:44.705Z,6.4
2023-07-25T01:05:49.895Z,6.2
2023-07-25T01:06:56.248Z,6.7
2023-07-25T01:08:02.085Z,6.4
2023-07-25T01:09:07.960Z,6.4
2023-07-25T01:10:12.830Z,6.4
2023-07-25T01:11:19.900Z,6
2023-07-25T01:12:24.782Z,6.1
2023-07-25T01:13:31.589Z,6.3
2023-07-25T01:14:38.352Z,6.2
2023-07-25T01:15:43.985Z,6.1
2023-07-25T01:16:49.641Z,6.2
2023-07-25T01:17:54.490Z,6.4
2023-07-25T01:18:59.403Z,5.8
2023-07-25T01:20:04.163Z,6.2
2023-07-25T01:21:09.454Z,6.1
2023-07-25T01:22:14.231Z,6.1
2023-07-25T01:23:18.989Z,5.9
2023-07-25T01:24:23.915Z,6.4
2023-07-25T01:25:28.601Z,6.2
2023-07-25T01:26:33.404Z,6.4
2023-07-25T01:27:40.101Z,6.6
2023-07-25T01:28:44.835Z,6.7
2023-07-25T01:29:50.675Z,6.5
2023-07-25T01:30:55.482Z,6.5
2023-07-25T01:32:01.463Z,6.6
2023-07-25T01:33:08.535Z,6.8
2023-07-25T01:34:14.680Z,6.9
2023-07-25T01:35:20.562Z,6.4
2023-07-25T01:36:25.377Z,6.6
2023-07-25T01:37:31.237Z,6.9
2023-07-25T01:38:36.001Z,6.4
2023-07-25T01:39:41.794Z,6.7
2023-07-25T01:40:46.505Z,6.8
2023-07-25T01:41:52.252Z,6.1
2023-07-25T01:42:57.106Z,6.7
2023-07-25T01:44:02.839Z,6.9
2023-07-25T01:45:07.698Z,6.4
2023-07-25T01:46:12.884Z,6.6
2023-07-25T01:47:17.604Z,6.1
2023-07-25T01:48:22.365Z,6.4
2023-07-25T01:49:27.131Z,6.2
2023-07-25T01:50:33.210Z,5.9
2023-07-25T01:51:38.011Z,5.9
2023-07-25T01:52:42.763Z,6.8
2023-07-25T01:53:48.566Z,6
2023-07-25T01:54:53.334Z,5.6
2023-07-25T01:55:58.134Z,6.2
2023-07-25T01:57:02.940Z,6.1
2023-07-25T01:58:07.932Z,6.2
2023-07-25T01:59:13.727Z,6
2023-07-25T02:00:18.963Z,6
2023-07-25T02:01:23.777Z,6
2023-07-25T02:02:29.646Z,6.2
2023-07-25T02:03:34.417Z,6.2
2023-07-25T02:04:39.192Z,6.1
2023-07-25T02:05:43.918Z,6
2023-07-25T02:06:49.818Z,6.2
2023-07-25T02:07:54.831Z,5.8
2023-07-25T02:09:00.645Z,5.8
2023-07-25T02:10:05.425Z,6.2
2023-07-25T02:11:10.606Z,6.2
2023-07-25T02:12:15.353Z,6.4
2023-07-25T02:13:20.157Z,6.4
2023-07-25T02:14:24.910Z,6.2
2023-07-25T02:15:30.839Z,5.9
2023-07-25T02:16:36.732Z,6.2
2023-07-25T02:17:41.517Z,6.1
2023-07-25T02:18:46.237Z,6
2023-07-25T02:19:51.410Z,6
2023-07-25T02:20:56.306Z,5.6
2023-07-25T02:22:01.044Z,6.1
2023-07-25T02:23:05.807Z,5.9
2023-07-25T02:24:10.716Z,5.9
2023-07-25T02:25:15.476Z,5.7
2023-07-25T02:26:20.214Z,5.3
2023-07-25T02:27:27.755Z,5.5
2023-07-25T02:28:32.596Z,5.7
2023-07-25T02:29:37.337Z,6
2023-07-25T02:30:43.965Z,5.5
2023-07-25T02:31:48.744Z,6.2
2023-07-25T02:32:53.471Z,5.7
2023-07-25T02:33:58.180Z,5.2
2023-07-25T02:35:04.199Z,5.8
2023-07-25T02:36:09.109Z,5.2
2023-07-25T02:37:13.875Z,5.3
2023-07-25T02:38:20.723Z,5.4
2023-07-25T02:39:25.448Z,5.9
2023-07-25T02:40:30.179Z,5
2023-07-25T02:41:35.031Z,5.3
2023-07-25T02:42:39.808Z,5.9
2023-07-25T02:43:44.587Z,5.9
2023-07-25T02:44:49.396Z,5.5
2023-07-25T02:45:55.317Z,5.1
2023-07-25T02:47:00.956Z,5.9
2023-07-25T02:48:05.875Z,5.9
2023-07-25T02:49:10.641Z,5.8
2023-07-25T02:50:15.521Z,5.4
2023-07-25T02:51:22.657Z,5.5
2023-07-25T02:52:28.562Z,6.3
2023-07-25T02:53:33.332Z,5.5
2023-07-25T02:54:38.094Z,5.7
2023-07-25T02:55:43.215Z,5.6
2023-07-25T02:56:49.206Z,5.8
2023-07-25T02:57:54.994Z,6
2023-07-25T02:58:59.805Z,5.4
2023-07-25T03:00:05.667Z,5.6
2023-07-25T03:01:10.879Z,5.7
2023-07-25T03:02:15.689Z,5.7
2023-07-25T03:03:20.455Z,5.6
2023-07-25T03:04:26.339Z,5.7
2023-07-25T03:05:31.073Z,5.7
2023-07-25T03:06:35.853Z,5.5
2023-07-25T03:07:41.715Z,5.7
2023-07-25T03:08:48.708Z,5.8
2023-07-25T03:09:54.615Z,5.4
2023-07-25T03:11:00.519Z,5.7
2023-07-25T03:12:05.336Z,5.9
2023-07-25T03:13:10.184Z,5.8
2023-07-25T03:14:15.010Z,6.1
2023-07-25T03:15:19.778Z,6
2023-07-25T03:16:24.576Z,6
2023-07-25T03:17:29.287Z,6.3
2023-07-25T03:18:34.052Z,6.2
2023-07-25T03:19:40.143Z,6.1
2023-07-25T03:20:45.139Z,6.2
2023-07-25T03:21:50.013Z,6.7
2023-07-25T03:22:54.707Z,6.3
2023-07-25T03:23:59.480Z,5.7
2023-07-25T03:25:04.271Z,6.1
2023-07-25T03:26:09.186Z,5.6
2023-07-25T03:27:14.004Z,6.2
2023-07-25T03:28:18.754Z,5.9
2023-07-25T03:29:24.418Z,6
2023-07-25T03:30:29.246Z,6.2
2023-07-25T03:31:36.046Z,6
2023-07-25T03:32:41.844Z,6.1
2023-07-25T03:33:46.575Z,6.5
2023-07-25T03:34:53.098Z,6.3
2023-07-25T03:35:58.240Z,6.1
2023-07-25T03:37:03.922Z,6.4
2023-07-25T03:38:09.930Z,6.8
2023-07-25T03:39:14.673Z,6.7
2023-07-25T03:40:19.406Z,6.7
2023-07-25T03:41:25.395Z,6.8
2023-07-25T03:42:30.529Z,6.8
2023-07-25T03:43:36.325Z,6.9
2023-07-25T03:44:41.093Z,6.5
2023-07-25T03:45:45.800Z,7.1
2023-07-25T03:46:50.734Z,6.6
2023-07-25T03:47:56.740Z,6.5
2023-07-25T03:49:02.872Z,6.5
2023-07-25T03:50:07.947Z,6.5
2023-07-25T03:51:13.974Z,6.1
2023-07-25T03:52:20.894Z,6.5
2023-07-25T03:53:26.006Z,6.3
2023-07-25T03:54:30.858Z,6.4
2023-07-25T03:55:36.717Z,6
2023-07-25T03:56:43.107Z,6.5
2023-07-25T03:57:48.025Z,6.3
2023-07-25T03:58:52.790Z,6.3
2023-07-25T03:59:57.636Z,5.9
2023-07-25T04:01:03.534Z,6.1
2023-07-25T04:02:08.290Z,5.8
2023-07-25T04:03:15.899Z,6
2023-07-25T04:04:19.747Z,6.3
2023-07-25T04:05:25.552Z,6.6
2023-07-25T04:06:30.659Z,6.5
2023-07-25T04:07:36.478Z,6.3
2023-07-25T04:08:41.414Z,6.1
2023-07-25T04:09:46.263Z,6.5
2023-07-25T04:10:51.140Z,6.2
2023-07-25T04:11:56.049Z,6.9
2023-07-25T04:13:00.914Z,6.7
2023-07-25T04:14:05.735Z,5.6
2023-07-25T04:15:10.501Z,6.2
2023-07-25T04:16:16.211Z,6.3
2023-07-25T04:17:20.988Z,6.4
2023-07-25T04:18:26.191Z,6.1
2023-07-25T04:19:31.501Z,6.2
2023-07-25T04:20:37.504Z,6.1
2023-07-25T04:21:42.312Z,5.9
2023-07-25T04:22:49.277Z,5.7
2023-07-25T04:23:54.390Z,5.6
2023-07-25T04:24:59.187Z,5.7
2023-07-25T04:26:04.026Z,5.8
2023-07-25T04:27:08.838Z,6
2023-07-25T04:28:14.156Z,5.4
2023-07-25T04:29:19.149Z,5.6
2023-07-25T04:30:25.078Z,5.5
2023-07-25T04:31:31.085Z,5.9
2023-07-25T04:32:37.924Z,6
2023-07-25T04:33:42.762Z,5.9
2023-07-25T04:34:47.595Z,6.2
2023-07-25T04:35:53.145Z,6.1
2023-07-25T04:36:57.964Z,6.4
2023-07-25T04:38:02.794Z,6.2
2023-07-25T04:39:07.559Z,6.2
2023-07-25T04:40:12.396Z,6.6
2023-07-25T04:41:17.206Z,5.8
2023-07-25T04:42:23.369Z,6.2
2023-07-25T04:43:28.149Z,6
2023-07-25T04:44:35.668Z,6.7
2023-07-25T04:45:40.526Z,5.9
2023-07-25T04:46:46.257Z,6.2
2023-07-25T04:47:51.034Z,6
2023-07-25T04:48:55.939Z,6
2023-07-25T04:50:01.769Z,6
2023-07-25T04:51:07.608Z,6.3
2023-07-25T04:52:12.422Z,6.4
2023-07-25T04:53:17.254Z,6.2
2023-07-25T04:54:22.024Z,6
2023-07-25T04:55:27.957Z,5.9
2023-07-25T04:56:33.064Z,5.9
2023-07-25T04:57:37.831Z,6.4
2023-07-25T04:58:42.556Z,6.3
2023-07-25T04:59:47.381Z,6
2023-07-25T05:00:53.339Z,6.2
2023-07-25T05:01:58.077Z,6.1
2023-07-25T05:03:02.919Z,6.1
2023-07-25T05:04:07.665Z,5.9
2023-07-25T05:05:12.409Z,6.4
2023-07-25T05:06:17.279Z,6.6
2023-07-25T05:07:21.988Z,6.3
2023-07-25T05:08:26.924Z,6.3
2023-07-25T05:09:31.741Z,6.3
2023-07-25T05:10:36.488Z,6.3
2023-07-25T05:11:43.257Z,5.8
2023-07-25T05:12:49.318Z,5.9
2023-07-25T05:13:55.067Z,7
2023-07-25T05:14:59.837Z,6.9
2023-07-25T05:16:06.001Z,6.4
2023-07-25T05:17:10.672Z,6.9
2023-07-25T05:18:16.436Z,6.6
2023-07-25T05:19:21.517Z,6.4
2023-07-25T05:20:26.312Z,6.4
2023-07-25T05:21:31.326Z,6.1
2023-07-25T05:22:36.944Z,6.4
2023-07-25T05:23:41.680Z,6.1
2023-07-25T05:24:46.453Z,5.8
2023-07-25T05:25:51.583Z,6.5
2023-07-25T05:26:58.405Z,6.1
2023-07-25T05:28:01.338Z,6.3
2023-07-25T05:29:08.629Z,5.8
2023-07-25T05:30:13.620Z,5.9
2023-07-25T05:31:19.066Z,5.5
2023-07-25T05:32:24.657Z,6.2
2023-07-25T05:33:29.460Z,5.6
2023-07-25T05:34:35.356Z,5.5
2023-07-25T05:35:40.154Z,5.7
2023-07-25T05:36:46.483Z,5.4
2023-07-25T05:37:52.385Z,5.1
2023-07-25T05:38:58.201Z,5.3
2023-07-25T05:40:04.130Z,5.5
2023-07-25T05:41:09.155Z,4.8
2023-07-25T05:42:15.352Z,4.9
2023-07-25T05:43:21.205Z,5.1
2023-07-25T05:44:26.133Z,4.9
2023-07-25T05:45:30.961Z,5.3
2023-07-25T05:46:36.051Z,4.9
2023-07-25T05:47:40.791Z,5
2023-07-25T05:48:45.558Z,5
2023-07-25T05:49:52.543Z,4.6
2023-07-25T05:50:57.324Z,5
2023-07-25T05:52:02.095Z,4.6
2023-07-25T05:53:07.114Z,4.7
2023-07-25T05:54:11.901Z,4.7
2023-07-25T05:55:16.701Z,4.5
2023-07-25T05:56:21.824Z,4.8
2023-07-25T05:57:26.704Z,4.8
2023-07-25T05:58:31.547Z,4.6
2023-07-25T05:59:37.872Z,4.5
2023-07-25T06:00:42.744Z,4
2023-07-25T06:01:49.735Z,3.8
2023-07-25T06:02:54.589Z,3.7
2023-07-25T06:03:59.521Z,3.7
2023-07-25T06:05:05.495Z,3.8
2023-07-25T06:06:11.665Z,3.6
2023-07-25T06:07:16.405Z,3
2023-07-25T06:08:22.363Z,3.6
2023-07-25T06:09:27.325Z,3.4
2023-07-25T06:10:32.625Z,3.1
2023-07-25T06:11:39.578Z,3.3
2023-07-25T06:12:44.368Z,2.8
2023-07-25T06:13:50.355Z,3.2
2023-07-25T06:14:55.275Z,3.1
2023-07-25T06:16:01.372Z,2.8
2023-07-25T06:17:06.231Z,3.1
2023-07-25T06:18:10.948Z,3.2
2023-07-25T06:19:15.745Z,3
2023-07-25T06:20:20.592Z,3.3
2023-07-25T06:21:25.335Z,3.1
2023-07-25T06:22:30.145Z,2.9
2023-07-25T06:23:35.046Z,2.9
2023-07-25T06:24:39.841Z,3.1
2023-07-25T06:25:45.052Z,3.1
2023-07-25T06:26:49.965Z,3.2
2023-07-25T06:27:54.737Z,2.9
2023-07-25T06:28:59.619Z,3
2023-07-25T06:30:04.401Z,3.2
2023-07-25T06:31:09.681Z,3.1
2023-07-25T06:32:14.540Z,3.1
2023-07-25T06:33:19.324Z,2.9
2023-07-25T06:34:24.120Z,3
2023-07-25T06:35:29.113Z,3
2023-07-25T06:36:33.880Z,3.3
2023-07-25T06:37:38.848Z,3.4
2023-07-25T06:38:43.906Z,3.5
2023-07-25T06:39:48.639Z,3.5
2023-07-25T06:40:53.388Z,3.3
2023-07-25T06:41:58.296Z,3.5
2023-07-25T06:43:03.221Z,3.5
2023-07-25T06:44:07.950Z,3.1
2023-07-25T06:45:12.666Z,3.8
2023-07-25T06:46:17.501Z,3.5
2023-07-25T06:47:22.387Z,3.8
2023-07-25T06:48:27.161Z,3.5
2023-07-25T06:49:33.973Z,3.6
2023-07-25T06:50:38.801Z,3.7
2023-07-25T06:51:43.570Z,3.7
2023-07-25T06:52:48.300Z,3.8
2023-07-25T06:53:54.201Z,3.7
2023-07-25T06:55:01.618Z,3.6
2023-07-25T06:56:07.535Z,3.5
2023-07-25T06:57:12.596Z,3.2
2023-07-25T06:58:17.513Z,3.4
2023-07-25T06:59:23.715Z,3.4
2023-07-25T07:00:28.712Z,3.6
2023-07-25T07:01:33.624Z,3.6
2023-07-25T07:02:38.372Z,3.7
2023-07-25T07:03:43.050Z,3.6
2023-07-25T07:04:47.990Z,3.5
2023-07-25T07:05:53.875Z,3.4
2023-07-25T07:06:58.587Z,3
2023-07-25T07:08:10.571Z,3.1
2023-07-25T07:09:16.495Z,3.1
2023-07-25T07:10:21.265Z,2.8
2023-07-25T07:11:26.541Z,2.8
2023-07-25T07:12:31.370Z,3.1
2023-07-25T07:13:36.137Z,2.7
2023-07-25T07:14:40.915Z,3.1
2023-07-25T07:15:45.752Z,3
2023-07-25T07:16:50.552Z,3.1
2023-07-25T07:17:55.403Z,2.9
2023-07-25T07:19:01.108Z,3.1
2023-07-25T07:20:06.959Z,3.4
2023-07-25T07:21:11.968Z,3.3
2023-07-25T07:22:16.811Z,3.2
2023-07-25T07:23:21.671Z,3.1
2023-07-25T07:24:27.768Z,3.3
2023-07-25T07:25:32.761Z,3.3
2023-07-25T07:26:37.613Z,3.8
2023-07-25T07:27:42.403Z,3.6
2023-07-25T07:28:47.256Z,3.6
2023-07-25T07:29:52.066Z,3.4
2023-07-25T07:30:57.981Z,3.7
2023-07-25T07:32:02.786Z,3.7
2023-07-25T07:33:07.948Z,3.7
2023-07-25T07:34:12.912Z,3.6
2023-07-25T07:35:18.026Z,3.4
2023-07-25T07:36:22.874Z,3.7
2023-07-25T07:37:27.803Z,3.8
2023-07-25T07:38:33.686Z,3.5
2023-07-25T07:39:38.436Z,3.4
2023-07-25T07:40:43.309Z,3.5
2023-07-25T07:41:48.137Z,4
2023-07-25T07:42:52.969Z,3.3
2023-07-25T07:43:58.878Z,3.6
2023-07-25T07:45:06.370Z,3.4
2023-07-25T07:46:11.685Z,3.2
2023-07-25T07:47:17.698Z,3.5
2023-07-25T07:48:23.074Z,3.2
2023-07-25T07:49:28.545Z,3.3
2023-07-25T07:50:33.302Z,3.4
2023-07-25T07:51:40.301Z,3.4
2023-07-25T07:52:46.497Z,3.4
2023-07-25T07:53:52.257Z,3.5
2023-07-25T07:54:58.176Z,3.5
2023-07-25T07:56:03.199Z,3.5
2023-07-25T07:57:08.004Z,3.3
2023-07-25T07:58:13.087Z,3.4
2023-07-25T07:59:17.993Z,3.3
2023-07-25T08:00:26.430Z,3.4
2023-07-25T08:01:31.655Z,3.6
2023-07-25T08:02:37.306Z,3.4
2023-07-25T08:03:42.495Z,3.6
2023-07-25T08:04:47.217Z,3.5
2023-07-25T08:05:52.056Z,3.2
2023-07-25T08:07:00.635Z,3.7
2023-07-25T08:08:05.724Z,3.4
2023-07-25T08:09:10.548Z,3.4
2023-07-25T08:10:15.316Z,3.2
2023-07-25T08:11:21.281Z,3.4
2023-07-25T08:12:26.022Z,3.3
2023-07-25T08:13:30.815Z,3.4
2023-07-25T08:14:35.815Z,2.7
2023-07-25T08:15:40.614Z,3.3
2023-07-25T08:16:45.409Z,3.2
2023-07-25T08:17:51.991Z,3.2
2023-07-25T08:18:56.917Z,3.4
2023-07-25T08:20:01.690Z,3.4
2023-07-25T08:21:06.573Z,3.2
2023-07-25T08:22:11.655Z,3.3
2023-07-25T08:23:17.809Z,3.4
2023-07-25T08:24:23.185Z,3.2
2023-07-25T08:25:27.975Z,3.5
2023-07-25T08:26:32.739Z,3.3
2023-07-25T08:27:38.581Z,3.1
2023-07-25T08:28:43.381Z,3.4
2023-07-25T08:29:49.434Z,3.2
2023-07-25T08:30:55.290Z,3.4
2023-07-25T08:32:02.889Z,3.2
2023-07-25T08:33:09.522Z,3.2
2023-07-25T08:34:14.282Z,3
2023-07-25T08:35:21.852Z,3.3
2023-07-25T08:36:27.891Z,3.2
2023-07-25T08:37:33.051Z,3.4
2023-07-25T08:38:38.836Z,3.4
2023-07-25T08:39:43.605Z,3.4
2023-07-25T08:40:48.459Z,3.1
2023-07-25T08:41:53.538Z,3.2
2023-07-25T08:42:59.444Z,3.3
2023-07-25T08:44:07.096Z,3.7
2023-07-25T08:45:11.918Z,3.5
2023-07-25T08:46:16.715Z,3.7
2023-07-25T08:47:21.450Z,3.7
2023-07-25T08:48:28.067Z,3.4
2023-07-25T08:49:31.074Z,3
2023-07-25T08:50:36.974Z,3.5
2023-07-25T08:51:42.784Z,3.1
2023-07-25T08:52:48.554Z,3.1
2023-07-25T08:53:53.304Z,3.1
2023-07-25T08:55:08.344Z,3.1
2023-07-25T08:56:14.191Z,3
2023-07-25T08:57:19.208Z,2.9
2023-07-25T08:58:25.001Z,2.8
2023-07-25T08:59:29.878Z,3
2023-07-25T09:00:35.781Z,3
2023-07-25T09:01:40.583Z,3
2023-07-25T09:02:46.135Z,3.5
2023-07-25T09:03:52.127Z,2.6
2023-07-25T09:04:56.869Z,3.1
2023-07-25T09:06:02.981Z,2.9
2023-07-25T09:07:07.932Z,2.9
2023-07-25T09:08:14.005Z,3
2023-07-25T09:09:20.160Z,3
2023-07-25T09:10:24.931Z,2.8
2023-07-25T09:11:34.232Z,2.9
2023-07-25T09:12:38.448Z,2.8
2023-07-25T09:13:43.191Z,3
2023-07-25T09:14:49.408Z,3
2023-07-25T09:15:54.166Z,3.1
2023-07-25T09:17:00.032Z,3.1
2023-07-25T09:18:05.365Z,3
2023-07-25T09:19:10.085Z,3
2023-07-25T09:20:14.849Z,2.8
2023-07-25T09:21:19.691Z,3.1
2023-07-25T09:22:25.456Z,2.9
2023-07-25T09:23:30.446Z,2.8
2023-07-25T09:24:35.294Z,3
2023-07-25T09:25:41.321Z,2.9
2023-07-25T09:26:48.270Z,2.9
2023-07-25T09:27:55.988Z,3.2
2023-07-25T09:29:01.623Z,2.9
2023-07-25T09:30:06.542Z,3
2023-07-25T09:31:15.612Z,3.1
2023-07-25T09:32:21.813Z,3.2
2023-07-25T09:33:29.253Z,3.3
2023-07-25T09:34:35.157Z,3
2023-07-25T09:35:38.947Z,3
2023-07-25T09:36:43.728Z,3.1
2023-07-25T09:37:48.478Z,2.9
2023-07-25T09:38:58.414Z,3.1
2023-07-25T09:40:03.488Z,3.1
2023-07-25T09:41:14.481Z,3.4
2023-07-25T09:42:19.255Z,2.9
2023-07-25T09:43:25.170Z,3
2023-07-25T09:44:29.950Z,3
2023-07-25T09:45:37.591Z,3.2
2023-07-25T09:46:43.502Z,3.1
2023-07-25T09:47:58.776Z,3.1
2023-07-25T09:49:03.598Z,2.8
2023-07-25T09:50:09.368Z,2.9
2023-07-25T09:51:15.314Z,3.2
2023-07-25T09:52:20.037Z,3.2
2023-07-25T09:53:26.918Z,3.1
2023-07-25T09:54:31.706Z,2.8
2023-07-25T09:55:36.470Z,3
2023-07-25T09:56:41.252Z,3
2023-07-25T09:57:49.363Z,3.1
2023-07-25T10:00:03.117Z,3.2
2023-07-25T10:01:08.303Z,2.9
2023-07-25T10:02:14.162Z,3.3
2023-07-25T10:03:19.078Z,3.3
2023-07-25T10:04:23.828Z,3
2023-07-25T10:05:29.858Z,2.8
2023-07-25T10:06:36.019Z,2.9
2023-07-25T10:07:41.037Z,2.8
2023-07-25T10:08:48.064Z,3.3
2023-07-25T10:09:52.905Z,3
2023-07-25T10:10:58.854Z,3
2023-07-25T10:12:04.862Z,2.8
2023-07-25T10:13:10.878Z,2.8
2023-07-25T10:14:15.704Z,2.6
2023-07-25T10:15:20.505Z,2.6
2023-07-25T10:16:25.273Z,2.5
2023-07-25T10:17:31.281Z,2.2
2023-07-25T10:18:36.380Z,2.4
2023-07-25T10:19:41.246Z,2.2
2023-07-25T10:20:53.890Z,2.2
2023-07-25T10:21:59.910Z,2.4
2023-07-25T10:23:04.700Z,2.3
2023-07-25T10:24:09.694Z,2.6
2023-07-25T10:25:15.227Z,2.6
2023-07-25T10:26:25.212Z,2.5
2023-07-25T10:27:30.316Z,2.5
2023-07-25T10:28:36.216Z,2.1
2023-07-25T10:29:40.956Z,2.4
2023-07-25T10:30:49.521Z,2.2
2023-07-25T10:31:54.314Z,2.3
2023-07-25T10:32:59.234Z,2.3
2023-07-25T10:34:06.123Z,2.8
2023-07-25T10:35:10.882Z,2.9
2023-07-25T10:36:15.624Z,2.7
2023-07-25T10:37:27.743Z,2.3
2023-07-25T10:38:33.322Z,2.1
2023-07-25T10:39:40.996Z,2.5
2023-07-25T10:40:45.754Z,2.7
2023-07-25T10:41:53.988Z,2.4
2023-07-25T10:43:06.233Z,2.6
2023-07-25T10:44:04.521Z,2.6
2023-07-25T10:45:09.282Z,2.4
2023-07-25T10:46:24.470Z,2.3
2023-07-25T10:47:32.523Z,2.3
2023-07-25T10:48:45.491Z,2.3
2023-07-25T10:49:53.155Z,2.4
2023-07-25T10:50:58.285Z,2.2
2023-07-25T10:52:03.249Z,2.5
2023-07-25T10:53:08.286Z,2.6
2023-07-25T10:54:21.058Z,2.4
2023-07-25T10:55:25.811Z,2.6
2023-07-25T10:56:30.628Z,2.8
2023-07-25T10:57:35.429Z,2.8
2023-07-25T10:58:40.255Z,2.6
2023-07-25T10:59:55.103Z,3.2
2023-07-25T11:00:59.920Z,3.2
2023-07-25T11:02:04.904Z,3.2
2023-07-25T11:03:09.718Z,3.5
2023-07-25T11:04:24.881Z,3.1
2023-07-25T11:05:34.925Z,3
2023-07-25T11:06:40.988Z,3.2
2023-07-25T11:07:46.817Z,4
2023-07-25T11:08:54.909Z,3.6
2023-07-25T11:09:59.655Z,3.7
2023-07-25T11:11:05.590Z,3.5
2023-07-25T11:12:13.129Z,3.8
2023-07-25T11:13:17.967Z,3.8
2023-07-25T11:14:22.874Z,3.2
2023-07-25T11:15:45.479Z,3
2023-07-25T11:16:35.864Z,3.2
2023-07-25T11:17:41.185Z,2.8
2023-07-25T11:18:47.108Z,2.7
2023-07-25T11:19:52.238Z,2.6
2023-07-25T11:20:57.026Z,2.3
2023-07-25T11:22:04.956Z,2.4
2023-07-25T11:23:13.522Z,2.6
2023-07-25T11:24:18.350Z,2.5
2023-07-25T11:25:26.085Z,2.5
2023-07-25T11:26:31.060Z,2.5
2023-07-25T11:27:35.857Z,2.4
2023-07-25T11:28:45.892Z,2.6
2023-07-25T11:29:51.710Z,2.8
2023-07-25T11:30:57.579Z,2.5
2023-07-25T11:32:02.918Z,2.5
2023-07-25T11:33:07.488Z,2.9
2023-07-25T11:34:12.425Z,2.7
2023-07-25T11:35:17.357Z,2.6
2023-07-25T11:36:23.581Z,2.8
2023-07-25T11:37:28.422Z,2.8
2023-07-25T11:38:33.272Z,2.8
2023-07-25T11:39:39.425Z,3
2023-07-25T11:40:45.292Z,2.7
2023-07-25T11:41:56.994Z,3.2
2023-07-25T11:43:02.767Z,3.2
2023-07-25T11:44:07.532Z,3.1
2023-07-25T11:45:13.426Z,2.9
2023-07-25T11:46:18.502Z,2.9
2023-07-25T11:48:58.565Z,3.2
2023-07-25T11:50:16.077Z,2.7
2023-07-25T11:51:08.961Z,3
2023-07-25T11:52:14.951Z,2.9
2023-07-25T11:53:20.901Z,2.6
2023-07-25T11:54:25.801Z,2.4
2023-07-25T11:55:30.706Z,2.5
2023-07-25T11:56:35.562Z,2.3
2023-07-25T11:57:42.392Z,2.4
2023-07-25T11:58:47.502Z,2.5
2023-07-25T11:59:55.323Z,2.4
2023-07-25T12:01:01.305Z,2.6
2023-07-25T12:02:08.460Z,2.4
2023-07-25T12:03:13.561Z,2.6
2023-07-25T12:04:26.875Z,2.7
2023-07-25T12:05:32.926Z,2.7
2023-07-25T12:06:37.978Z,2.5
2023-07-25T12:07:42.976Z,2.6
2023-07-25T12:08:51.137Z,2.4
2023-07-25T12:09:56.186Z,2.2
2023-07-25T12:11:02.547Z,2.2
2023-07-25T12:12:10.654Z,2.4
2023-07-25T12:13:16.250Z,2.2
2023-07-25T12:14:21.221Z,2.5
2023-07-25T12:15:26.789Z,2.4
2023-07-25T12:16:42.229Z,2.3
2023-07-25T12:17:47.416Z,2.3
2023-07-25T12:18:52.311Z,2.2
2023-07-25T12:19:58.516Z,2.6
2023-07-25T12:21:03.546Z,2.2
2023-07-25T12:22:08.526Z,2.3
2023-07-25T12:23:13.551Z,2.2
2023-07-25T12:24:18.760Z,2.1
2023-07-25T12:25:23.807Z,2.5
2023-07-25T12:26:29.183Z,2.3
2023-07-25T12:27:39.352Z,2.5
2023-07-25T12:28:52.283Z,2.2
2023-07-25T12:29:57.288Z,2.7
2023-07-25T12:31:02.251Z,2.4
2023-07-25T12:32:07.284Z,2.4
2023-07-25T12:33:13.422Z,2.2
2023-07-25T12:34:18.360Z,2.3
2023-07-25T12:35:24.389Z,2.4
2023-07-25T12:36:30.784Z,2.4
2023-07-25T12:37:35.848Z,2.5
2023-07-25T12:38:40.882Z,2.3
2023-07-25T12:39:46.071Z,2.5
2023-07-25T12:40:52.668Z,2.4
2023-07-25T12:41:57.592Z,2.6
2023-07-25T12:43:03.007Z,2.7
2023-07-25T12:44:09.337Z,2.5
2023-07-25T12:45:14.283Z,2.8
2023-07-25T12:46:20.551Z,2.7
2023-07-25T12:47:25.536Z,2.6
2023-07-25T12:48:30.550Z,3
2023-07-25T12:49:36.682Z,2.9
2023-07-25T12:50:41.764Z,2.5
2023-07-25T12:51:46.813Z,2.6
2023-07-25T12:52:51.821Z,2.9
2023-07-25T12:53:57.128Z,2.6
2023-07-25T12:55:01.926Z,2.5
2023-07-25T12:56:07.021Z,2.6
2023-07-25T12:57:13.354Z,3
2023-07-25T12:58:18.334Z,2.7
2023-07-25T12:59:23.369Z,2.9
2023-07-25T13:00:30.812Z,3
2023-07-25T13:01:36.069Z,2.6
2023-07-25T13:02:41.249Z,2.7
2023-07-25T13:03:46.211Z,2.5
2023-07-25T13:04:51.142Z,2.8
2023-07-25T13:05:56.176Z,2.6
2023-07-25T13:07:01.627Z,2.7
2023-07-25T13:08:07.769Z,2.6
2023-07-25T13:09:13.938Z,2.5
2023-07-25T13:10:18.977Z,2.6
2023-07-25T13:11:25.304Z,2.5
2023-07-25T13:12:30.397Z,2.2
2023-07-25T13:13:35.398Z,2.2
2023-07-25T13:14:41.043Z,2.4
2023-07-25T13:15:47.191Z,2.4
2023-07-25T13:16:52.444Z,2.3
2023-07-25T13:17:57.671Z,2.4
2023-07-25T13:19:02.680Z,2.4
2023-07-25T13:20:07.749Z,2.5
2023-07-25T13:21:13.849Z,2.6
2023-07-25T13:22:18.803Z,2.4
2023-07-25T13:23:23.763Z,2.5
2023-07-25T13:24:29.909Z,2.9
2023-07-25T13:25:35.017Z,2.9
2023-07-25T13:26:39.999Z,3.1
2023-07-25T13:27:45.298Z,3
2023-07-25T13:28:50.317Z,2.9
2023-07-25T13:29:55.582Z,3.1
2023-07-25T13:31:00.783Z,3.3
2023-07-25T13:32:05.788Z,3.1
2023-07-25T13:33:11.876Z,2.9
2023-07-25T13:34:16.868Z,2.9
2023-07-25T13:35:21.865Z,2.6
2023-07-25T13:36:27.027Z,2.6
2023-07-25T13:37:32.268Z,2.7
2023-07-25T13:38:37.249Z,2.7
2023-07-25T13:39:42.367Z,2.8
2023-07-25T13:40:47.547Z,2.5
2023-07-25T13:41:52.518Z,2.5
2023-07-25T13:42:57.490Z,2.5
2023-07-25T13:45:22.489Z,2.6
2023-07-25T13:46:28.232Z,2.5
2023-07-25T13:47:33.171Z,2.6
2023-07-25T13:48:38.168Z,2.5
2023-07-25T13:49:43.210Z,2.6
2023-07-25T13:50:53.442Z,2.6
2023-07-25T13:51:53.328Z,2.8
2023-07-25T13:52:58.501Z,2.8
2023-07-25T13:54:03.507Z,2.7
2023-07-25T13:55:08.632Z,2.7
2023-07-25T13:56:14.161Z,2.7
2023-07-25T13:57:19.695Z,2.7
2023-07-25T14:00:00.127Z,2.5
2023-07-25T14:01:05.324Z,2.8
2023-07-25T14:02:10.137Z,2.6
2023-07-25T14:03:15.181Z,2.5
2023-07-25T14:04:20.032Z,2.4
2023-07-25T14:05:25.174Z,2.3
2023-07-25T14:06:31.242Z,2.5
2023-07-25T14:07:36.293Z,2.2
2023-07-25T14:08:41.320Z,2.4
2023-07-25T14:09:57.680Z,2.3
2023-07-25T14:11:03.269Z,2.1
2023-07-25T14:12:08.721Z,2.3
2023-07-25T14:13:13.710Z,2.2
2023-07-25T14:14:18.718Z,2.2
2023-07-25T14:15:23.714Z,2.3
2023-07-25T14:16:29.689Z,2.1
2023-07-25T14:17:34.661Z,2.3
2023-07-25T14:18:39.806Z,2.3
2023-07-25T14:19:47.146Z,2.1
2023-07-25T14:20:52.916Z,2.3
2023-07-25T14:21:57.380Z,2.3
2023-07-25T14:23:02.408Z,2.4
2023-07-25T14:24:07.540Z,2.1
2023-07-25T14:25:12.729Z,2.3
2023-07-25T14:26:17.660Z,2.1
2023-07-25T14:27:23.105Z,2.1
2023-07-25T14:28:28.220Z,2.1
2023-07-25T14:29:33.165Z,2.1
2023-07-25T14:30:40.097Z,2.3
2023-07-25T14:31:45.376Z,2.7
2023-07-25T14:32:50.308Z,2.4
2023-07-25T14:33:56.324Z,2.4
2023-07-25T14:35:05.575Z,2.7
2023-07-25T14:36:10.712Z,2.4
2023-07-25T14:37:15.781Z,2.5
2023-07-25T14:38:22.397Z,2.3
2023-07-25T14:39:27.374Z,2.4
2023-07-25T14:40:33.479Z,2.3
2023-07-25T14:41:39.581Z,2.4
2023-07-25T14:42:44.561Z,2.2
2023-07-25T14:43:51.996Z,2.2
2023-07-25T14:44:54.778Z,2.2
2023-07-25T14:45:59.790Z,1.9
2023-07-25T14:47:05.061Z,2.2
2023-07-25T14:48:10.113Z,1.8
2023-07-25T14:49:15.081Z,2
2023-07-25T14:50:20.759Z,1.9
2023-07-25T14:51:25.787Z,1.8
2023-07-25T14:52:30.794Z,2
2023-07-25T14:53:35.926Z,1.8
2023-07-25T14:54:41.129Z,2.1
2023-07-25T14:55:46.140Z,2
2023-07-25T14:56:51.270Z,2.4
2023-07-25T14:57:56.369Z,2.2
2023-07-25T14:59:01.451Z,2.5
2023-07-25T15:00:06.548Z,2.6
2023-07-25T15:01:12.897Z,2.3
2023-07-25T15:02:18.880Z,2.3
2023-07-25T15:03:23.199Z,2.6
2023-07-25T15:04:28.264Z,2.4
2023-07-25T15:05:33.711Z,2.6
2023-07-25T15:06:38.723Z,2.5
2023-07-25T15:07:45.269Z,2.7
2023-07-25T15:08:50.260Z,2.4
2023-07-25T15:09:56.272Z,1.8
2023-07-25T15:11:01.232Z,2.1
2023-07-25T15:12:06.238Z,2
2023-07-25T15:13:11.255Z,2.2
2023-07-25T15:14:16.381Z,1.9